Fritchton, Indiana
Current Conditions -  °F | °C
As of 10:53 AM on Thursday 27 Nov 2014 (Local Time) from KLWV Reporting Station
Haze Haze  
Wind Chill: 15°   Ceiling: 1500
Heat Index: 28°   Visibility: 4mi
Dew Point: 22°   Wind: 21mph
Humidity: 78%   Direction: 310°NW
Pressure: 30.44"   Gusts: NA
Location:  38.6298°N, 87.5042°W
Report Text: KLWV 271653Z AUTO 31018KT 4SM HZ OVC015 M02/M06 A3044 RMK AO2 SLP312 T10221056
Loading
Personal Weather Stations






























Interactive Weather Map New forecast layout! Learn more

10-Day Weather Forecast

Advertisements
Track Severe Weather on mobile